Time;durP1;ratioP1;P1;durP2;ratioP2;P2;SDS_P1;SDS_P2;PMS_P1;PMS_P2;Temp;Humidity;BMP_temperature;BMP_pressure;BME280_temperature;BME280_humidity;BME280_pressure;Samples;Min_cycle;Max_cycle;Signal;HPM_P1;HPM_P2
2021/12/08 00:00:59;;;;;;;1.77;1.27;;;5.60;74.80;;;;;;5033204;28;20463;-76
2021/12/08 00:03:28;;;;;;;5.00;1.37;;;5.70;74.80;;;;;;5032368;28;20204;-77
2021/12/08 00:05:55;;;;;;;3.57;1.43;;;5.70;74.90;;;;;;5032907;28;20767;-76
2021/12/08 00:08:24;;;;;;;4.60;1.07;;;5.70;74.90;;;;;;5032759;28;20416;-77
2021/12/08 00:13:35;;;;;;;3.80;1.20;;;5.70;75.90;;;;;;5030633;28;20405;-77
2021/12/08 00:16:05;;;;;;;3.27;1.33;;;5.70;76.80;;;;;;5033597;28;20789;-77
2021/12/08 00:18:33;;;;;;;3.90;1.40;;;5.70;77.50;;;;;;5032450;28;20409;-77
2021/12/08 00:21:01;;;;;;;2.10;1.17;;;5.70;77.90;;;;;;5032792;28;20409;-77
2021/12/08 00:23:28;;;;;;;6.50;1.70;;;5.70;79.70;;;;;;5031864;28;20459;-77
2021/12/08 00:25:55;;;;;;;1.87;1.10;;;5.60;80.70;;;;;;5031998;28;20930;-77
2021/12/08 00:28:21;;;;;;;1.87;1.20;;;5.50;82.20;;;;;;5031414;28;20463;-78
2021/12/08 00:30:50;;;;;;;3.47;1.23;;;5.40;83.70;;;;;;5031961;28;20847;-76
2021/12/08 00:33:16;;;;;;;4.37;1.20;;;5.40;84.90;;;;;;5031507;28;20413;-77
2021/12/08 00:35:48;;;;;;;1.47;0.87;;;5.30;86.30;;;;;;5030585;28;20432;-77
2021/12/08 00:38:17;;;;;;;7.33;1.50;;;5.30;87.60;;;;;;5030650;28;20409;-76
2021/12/08 00:40:44;;;;;;;2.80;1.17;;;5.20;89.60;;;;;;5031557;28;20463;-75
2021/12/08 00:43:10;;;;;;;2.37;0.90;;;5.10;90.00;;;;;;4997342;28;20425;-76
2021/12/08 00:45:35;;;;;;;3.57;1.50;;;5.00;90.30;;;;;;5032125;28;20570;-76
2021/12/08 00:48:03;;;;;;;2.40;1.60;;;5.00;90.60;;;;;;5032188;28;20409;-77
2021/12/08 00:50:32;;;;;;;5.80;2.20;;;5.00;90.60;;;;;;5032366;28;20829;-78
2021/12/08 00:52:58;;;;;;;1.90;1.20;;;5.00;90.90;;;;;;5033894;28;20416;-76
2021/12/08 00:55:26;;;;;;;3.37;1.40;;;5.00;91.10;;;;;;5037259;28;20413;-76
2021/12/08 00:57:52;;;;;;;6.53;1.90;;;5.00;91.20;;;;;;5043641;28;20421;-76
2021/12/08 01:00:21;;;;;;;1.60;1.00;;;5.00;91.20;;;;;;5041024;28;20437;-76
2021/12/08 01:02:47;;;;;;;3.90;1.13;;;5.00;91.30;;;;;;5041794;28;20421;-77
2021/12/08 01:05:16;;;;;;;3.13;1.20;;;5.00;91.30;;;;;;5032960;28;20423;-77
2021/12/08 01:07:43;;;;;;;2.77;1.40;;;5.00;91.30;;;;;;5031388;28;20449;-77
2021/12/08 01:10:13;;;;;;;6.20;1.30;;;5.10;91.30;;;;;;5030985;28;20499;-77
2021/12/08 01:12:39;;;;;;;1.90;1.00;;;5.10;91.40;;;;;;5031417;28;20405;-77
2021/12/08 01:15:05;;;;;;;4.60;1.80;;;5.10;91.30;;;;;;5030891;28;20488;-76
2021/12/08 01:17:32;;;;;;;2.40;0.77;;;5.10;91.20;;;;;;5029656;28;20409;-77
2021/12/08 01:19:59;;;;;;;4.53;1.57;;;5.10;91.20;;;;;;5030787;28;20524;-77
2021/12/08 01:22:24;;;;;;;2.57;1.17;;;5.10;91.10;;;;;;5031003;28;20413;-77
2021/12/08 01:24:50;;;;;;;3.50;1.20;;;5.10;91.30;;;;;;5029857;28;20435;-77
2021/12/08 01:27:16;;;;;;;3.10;1.10;;;5.10;91.40;;;;;;5014889;28;20178;-77
2021/12/08 01:29:41;;;;;;;2.47;1.30;;;5.10;91.40;;;;;;5013461;28;20202;-77
2021/12/08 01:32:07;;;;;;;6.93;1.10;;;5.10;91.60;;;;;;5031700;28;20531;-77
2021/12/08 01:34:34;;;;;;;2.23;1.50;;;5.10;91.70;;;;;;5031642;28;20237;-77
2021/12/08 01:37:00;;;;;;;2.80;1.10;;;5.10;91.70;;;;;;5029701;28;20185;-77
2021/12/08 01:39:26;;;;;;;1.63;1.20;;;5.10;91.80;;;;;;5032268;28;20641;-77
2021/12/08 01:41:53;;;;;;;2.53;1.20;;;5.10;91.80;;;;;;5031484;28;20429;-77
2021/12/08 01:47:04;;;;;;;4.30;0.87;;;5.10;92.00;;;;;;5035544;28;20436;-76
2021/12/08 01:49:30;;;;;;;1.73;1.10;;;5.10;92.00;;;;;;5034148;28;20472;-77
2021/12/08 01:51:57;;;;;;;1.77;0.83;;;5.10;92.10;;;;;;5034835;28;20438;-77
2021/12/08 01:54:23;;;;;;;4.87;1.37;;;5.10;92.20;;;;;;5032578;28;20855;-77
2021/12/08 01:56:49;;;;;;;3.60;1.47;;;5.20;92.40;;;;;;5029244;28;20441;-77
2021/12/08 01:59:15;;;;;;;2.07;1.20;;;5.20;92.40;;;;;;5030368;28;20635;-77
2021/12/08 02:01:43;;;;;;;4.33;1.30;;;5.20;92.50;;;;;;5030358;28;20413;-77
2021/12/08 02:04:09;;;;;;;5.13;1.30;;;5.20;92.50;;;;;;5030514;28;20973;-76
2021/12/08 02:06:38;;;;;;;5.63;1.80;;;5.20;92.50;;;;;;5030221;28;20416;-76
2021/12/08 02:09:09;;;;;;;4.40;1.93;;;5.20;92.60;;;;;;5030204;28;20843;-77
2021/12/08 02:11:36;;;;;;;6.50;1.43;;;5.20;92.60;;;;;;5030185;28;20428;-77
2021/12/08 02:14:02;;;;;;;3.17;1.43;;;5.20;92.50;;;;;;5029215;28;20807;-77
2021/12/08 02:16:30;;;;;;;3.90;1.60;;;5.20;92.60;;;;;;5031041;28;20413;-77
2021/12/08 02:18:56;;;;;;;4.17;1.60;;;5.20;92.60;;;;;;5031911;28;20269;-76
2021/12/08 02:21:41;;;;;;;2.30;1.00;;;5.20;92.50;;;;;;5034895;28;20915;-76
2021/12/08 02:24:10;;;;;;;4.03;1.27;;;5.10;92.60;;;;;;5032535;28;20420;-76
2021/12/08 02:26:38;;;;;;;4.37;1.20;;;5.10;92.80;;;;;;5033150;28;20427;-76
2021/12/08 02:29:08;;;;;;;2.67;1.50;;;5.10;92.90;;;;;;5033970;28;20464;-76
2021/12/08 02:48:15;;;;;;;6.13;1.10;;;5.00;93.90;;;;;;5033874;28;20397;-77
2021/12/08 02:50:43;;;;;;;2.40;1.10;;;5.00;94.00;;;;;;5032245;28;20896;-77
2021/12/08 02:53:12;;;;;;;4.43;1.33;;;5.00;94.10;;;;;;5033292;28;20363;-77
2021/12/08 02:55:38;;;;;;;1.50;1.10;;;4.90;94.60;;;;;;5033484;28;20409;-77
2021/12/08 02:58:05;;;;;;;3.13;1.47;;;4.90;94.40;;;;;;5033689;28;20748;-77
2021/12/08 03:00:35;;;;;;;3.43;1.40;;;4.90;94.60;;;;;;5033359;28;20455;-77
2021/12/08 03:03:03;;;;;;;6.43;1.30;;;4.90;94.60;;;;;;5033334;28;20764;-77
2021/12/08 03:05:29;;;;;;;3.63;1.57;;;4.90;94.80;;;;;;5033430;28;20405;-77
2021/12/08 03:07:56;;;;;;;3.20;1.63;;;4.90;94.80;;;;;;5031859;28;20433;-77
2021/12/08 03:10:27;;;;;;;5.37;1.53;;;4.90;94.70;;;;;;5033350;28;20459;-77
2021/12/08 03:12:53;;;;;;;2.90;1.17;;;5.00;95.10;;;;;;5033226;28;20401;-77
2021/12/08 03:15:19;;;;;;;7.20;1.27;;;5.00;95.00;;;;;;5033484;28;20536;-77
2021/12/08 03:17:45;;;;;;;5.73;1.30;;;5.00;95.10;;;;;;5033996;28;20162;-76
2021/12/08 03:20:16;;;;;;;7.77;1.40;;;5.00;95.20;;;;;;5033032;28;20490;-76
2021/12/08 03:22:46;;;;;;;1.50;1.10;;;5.00;95.10;;;;;;5039790;28;20261;-76
2021/12/08 03:25:16;;;;;;;2.63;1.13;;;5.00;95.40;;;;;;5045083;28;20479;-75
2021/12/08 03:27:50;;;;;;;3.00;1.43;;;5.00;95.50;;;;;;5042868;28;20417;-76
2021/12/08 03:30:22;;;;;;;2.53;1.30;;;5.00;95.50;;;;;;5031225;28;20465;-77
2021/12/08 03:32:55;;;;;;;1.93;0.93;;;5.00;95.60;;;;;;5032912;28;20405;-77
2021/12/08 03:35:20;;;;;;;1.83;1.00;;;5.00;95.70;;;;;;5015056;28;20424;-77
2021/12/08 03:37:47;;;;;;;2.20;1.47;;;5.00;95.70;;;;;;5031617;28;20540;-77
2021/12/08 03:40:17;;;;;;;4.03;1.40;;;5.00;95.90;;;;;;5032679;28;20252;-77
2021/12/08 03:42:44;;;;;;;2.17;1.00;;;5.00;95.90;;;;;;5014666;28;20811;-77
2021/12/08 03:45:15;;;;;;;2.70;1.60;;;5.00;96.00;;;;;;5032694;28;20413;-77
2021/12/08 03:47:43;;;;;;;1.37;1.10;;;5.00;96.00;;;;;;5032642;28;20787;-77
2021/12/08 03:50:13;;;;;;;2.53;1.40;;;5.00;96.20;;;;;;5032195;28;20818;-77
2021/12/08 03:52:39;;;;;;;1.73;1.20;;;5.00;96.10;;;;;;5031618;28;20405;-78
2021/12/08 03:55:08;;;;;;;2.00;1.30;;;5.00;96.20;;;;;;5033068;28;20768;-76
2021/12/08 03:57:33;;;;;;;1.83;1.00;;;5.00;96.10;;;;;;5032659;28;20405;-77
2021/12/08 03:59:59;;;;;;;2.73;1.60;;;5.00;96.20;;;;;;5032988;28;20527;-76
2021/12/08 04:02:25;;;;;;;2.13;1.20;;;5.00;96.60;;;;;;5032819;28;20183;-76
2021/12/08 04:04:51;;;;;;;1.80;1.00;;;5.00;96.40;;;;;;5033225;28;20790;-76
2021/12/08 04:07:18;;;;;;;2.40;1.20;;;5.00;96.50;;;;;;5032221;28;20409;-76
2021/12/08 04:09:47;;;;;;;2.17;1.17;;;5.00;96.40;;;;;;5033135;28;20211;-76
2021/12/08 04:12:17;;;;;;;9.10;2.00;;;5.00;96.50;;;;;;5032779;28;20416;-76
2021/12/08 04:14:46;;;;;;;3.10;1.10;;;5.00;96.60;;;;;;5031726;28;20409;-76
2021/12/08 04:17:12;;;;;;;2.43;1.70;;;5.00;96.60;;;;;;5030919;28;20416;-77
2021/12/08 04:19:38;;;;;;;1.80;1.47;;;5.10;96.60;;;;;;5032335;28;20425;-77
2021/12/08 04:22:15;;;;;;;1.40;1.30;;;5.10;96.60;;;;;;5032236;28;20205;-77
2021/12/08 04:24:44;;;;;;;1.47;1.10;;;5.10;96.70;;;;;;5032075;28;20456;-76
2021/12/08 04:27:14;;;;;;;3.13;1.43;;;5.10;96.60;;;;;;5032062;28;20409;-77
2021/12/08 04:29:44;;;;;;;2.40;1.33;;;5.20;96.70;;;;;;5030412;28;20476;-77
2021/12/08 04:32:14;;;;;;;2.63;1.40;;;5.20;96.70;;;;;;5030315;28;20445;-77
2021/12/08 04:34:42;;;;;;;3.80;1.53;;;5.20;96.70;;;;;;5032142;28;20906;-78
2021/12/08 04:37:18;;;;;;;8.97;1.97;;;5.20;96.70;;;;;;5032883;28;20412;-78
2021/12/08 04:40:06;;;;;;;2.27;1.40;;;5.20;96.80;;;;;;5031079;28;20440;-76
2021/12/08 04:45:29;;;;;;;2.60;1.43;;;5.20;96.80;;;;;;5011523;28;20425;-78
2021/12/08 04:48:21;;;;;;;3.40;1.80;;;5.20;97.00;;;;;;5031828;28;20431;-78
2021/12/08 04:53:43;;;;;;;1.93;1.13;;;5.20;97.10;;;;;;5032683;28;20451;-81
2021/12/08 05:06:51;;;;;;;3.90;1.63;;;5.30;96.90;;;;;;5031739;28;20475;-77
2021/12/08 05:09:26;;;;;;;3.77;1.23;;;5.30;96.90;;;;;;5030615;28;20837;-78
2021/12/08 05:12:02;;;;;;;3.63;1.73;;;5.30;96.90;;;;;;5032708;28;20480;-78
2021/12/08 05:14:32;;;;;;;6.57;3.13;;;5.20;97.10;;;;;;5033486;28;20503;-77
2021/12/08 05:17:05;;;;;;;2.77;1.50;;;5.20;97.10;;;;;;5032891;28;20420;-78
2021/12/08 05:19:34;;;;;;;3.43;1.20;;;5.20;97.20;;;;;;5030825;28;20587;-78
2021/12/08 05:22:08;;;;;;;5.23;1.77;;;5.20;97.30;;;;;;5031759;28;20907;-76
2021/12/08 05:24:38;;;;;;;5.80;1.70;;;5.20;97.50;;;;;;5032077;28;20452;-76
2021/12/08 05:27:21;;;;;;;2.50;1.63;;;5.10;97.50;;;;;;5032383;28;20413;-76
2021/12/08 05:30:05;;;;;;;2.30;1.37;;;5.10;97.80;;;;;;5030712;28;20452;-77
2021/12/08 05:32:31;;;;;;;6.30;1.77;;;5.10;98.10;;;;;;5030879;28;20463;-76
2021/12/08 05:34:57;;;;;;;4.17;1.30;;;5.00;97.70;;;;;;5029311;28;20782;-77
2021/12/08 05:37:24;;;;;;;4.73;1.83;;;5.00;97.70;;;;;;5030991;28;20170;-77
2021/12/08 05:39:51;;;;;;;3.10;1.63;;;5.00;97.90;;;;;;5031019;28;20444;-77
2021/12/08 05:42:22;;;;;;;2.80;1.40;;;5.00;98.00;;;;;;5030730;28;20795;-76
2021/12/08 05:44:48;;;;;;;3.07;1.43;;;5.00;98.10;;;;;;5030753;28;20603;-78
2021/12/08 05:47:19;;;;;;;4.80;1.57;;;5.00;98.20;;;;;;5009553;28;20501;-77
2021/12/08 05:49:46;;;;;;;3.67;1.63;;;5.00;98.20;;;;;;5010964;28;20841;-76
2021/12/08 05:52:13;;;;;;;4.50;2.40;;;5.00;98.20;;;;;;5009771;28;20406;-76
2021/12/08 05:54:42;;;;;;;5.83;2.10;;;5.00;98.30;;;;;;5021838;28;20440;-83
2021/12/08 05:57:21;;;;;;;4.30;1.90;;;5.00;98.30;;;;;;5024380;28;20446;-83
2021/12/08 05:59:49;;;;;;;2.90;1.57;;;5.00;98.30;;;;;;5053925;28;20441;-83
2021/12/08 06:02:26;;;;;;;4.00;1.70;;;4.90;98.30;;;;;;5022990;28;20426;-82
2021/12/08 06:04:52;;;;;;;4.70;2.07;;;4.90;98.40;;;;;;5021326;28;20437;-84
2021/12/08 06:07:22;;;;;;;3.97;1.87;;;4.90;98.50;;;;;;5019552;28;20421;-82
2021/12/08 06:09:55;;;;;;;8.90;2.30;;;4.90;98.50;;;;;;5054583;28;20480;-82
2021/12/08 06:12:21;;;;;;;3.13;2.10;;;4.90;98.60;;;;;;5029794;28;20429;-82
2021/12/08 06:14:53;;;;;;;4.80;2.33;;;5.00;98.70;;;;;;5030518;28;20497;-82
2021/12/08 06:17:21;;;;;;;10.63;2.80;;;5.00;98.60;;;;;;5033404;28;20441;-83
2021/12/08 06:19:48;;;;;;;5.27;1.83;;;5.00;98.60;;;;;;5006721;28;20997;-83
2021/12/08 06:22:18;;;;;;;1.67;1.47;;;5.00;98.70;;;;;;5029758;28;20497;-82
2021/12/08 06:24:45;;;;;;;8.27;2.30;;;5.00;98.70;;;;;;5028827;28;20421;-82
2021/12/08 06:27:11;;;;;;;5.70;2.20;;;5.00;98.80;;;;;;5030893;28;20611;-83
2021/12/08 06:29:38;;;;;;;6.47;2.17;;;5.00;98.90;;;;;;5061324;28;20450;-81
2021/12/08 06:32:07;;;;;;;4.30;1.73;;;5.10;98.80;;;;;;5031877;28;20465;-82
2021/12/08 06:34:35;;;;;;;10.27;1.77;;;5.10;98.70;;;;;;5030587;28;20923;-83
2021/12/08 06:37:13;;;;;;;9.80;2.10;;;5.10;98.50;;;;;;5022388;28;20529;-84
2021/12/08 06:39:45;;;;;;;4.13;1.70;;;5.10;98.50;;;;;;5006392;28;20481;-83
2021/12/08 06:42:15;;;;;;;3.73;1.80;;;5.10;98.50;;;;;;5006175;28;20498;-83
2021/12/08 06:44:49;;;;;;;4.33;2.00;;;5.10;98.50;;;;;;5011142;28;20426;-81
2021/12/08 06:47:20;;;;;;;2.63;1.30;;;5.20;98.50;;;;;;5024738;28;20429;-82
2021/12/08 06:49:49;;;;;;;6.07;2.00;;;5.20;98.50;;;;;;5025662;28;20457;-83
2021/12/08 06:52:21;;;;;;;4.10;2.10;;;5.20;98.50;;;;;;5023712;28;20481;-82
2021/12/08 06:54:55;;;;;;;4.60;2.20;;;5.20;98.50;;;;;;5021488;28;20429;-79
2021/12/08 06:57:33;;;;;;;5.43;1.80;;;5.20;98.50;;;;;;5021787;28;20955;-80
2021/12/08 07:00:17;;;;;;;4.87;1.80;;;5.20;98.50;;;;;;5003442;28;20434;-80
2021/12/08 07:05:52;;;;;;;7.80;3.00;;;5.20;98.40;;;;;;5025311;28;20483;-78
2021/12/08 07:08:18;;;;;;;4.90;2.10;;;5.30;98.40;;;;;;5015578;28;20509;-79
2021/12/08 07:10:46;;;;;;;5.70;2.27;;;5.30;98.30;;;;;;5014153;28;20505;-79
2021/12/08 07:13:20;;;;;;;3.50;1.80;;;5.30;98.20;;;;;;5015038;28;20457;-79
2021/12/08 07:16:01;;;;;;;5.77;2.10;;;5.30;98.10;;;;;;5014626;28;20432;-80
2021/12/08 07:18:38;;;;;;;10.00;3.07;;;5.30;98.20;;;;;;5019575;28;20494;-79
2021/12/08 07:21:06;;;;;;;9.80;3.20;;;5.30;98.20;;;;;;5016785;28;20426;-78
2021/12/08 07:23:40;;;;;;;7.20;2.43;;;5.30;98.20;;;;;;5019958;28;20799;-81
2021/12/08 07:26:11;;;;;;;7.33;2.07;;;5.30;98.20;;;;;;5019051;28;20433;-79
2021/12/08 07:28:40;;;;;;;7.20;2.53;;;5.30;98.20;;;;;;5002045;28;20823;-79
2021/12/08 07:31:11;;;;;;;7.27;2.17;;;5.30;98.20;;;;;;5027207;28;20426;-78
2021/12/08 07:33:37;;;;;;;5.70;2.17;;;5.30;98.10;;;;;;5024894;28;20414;-78
2021/12/08 07:36:07;;;;;;;9.23;2.87;;;5.30;98.10;;;;;;5026398;28;20410;-80
2021/12/08 07:38:33;;;;;;;12.80;4.60;;;5.30;98.10;;;;;;5019193;28;20462;-79
2021/12/08 07:41:06;;;;;;;4.47;2.50;;;5.30;98.10;;;;;;5034278;23;20508;-72
2021/12/08 07:43:35;;;;;;;6.83;2.37;;;5.30;98.00;;;;;;5012350;28;20745;-71
2021/12/08 07:46:07;;;;;;;5.80;2.17;;;5.30;97.90;;;;;;5011541;28;20420;-71
2021/12/08 07:48:56;;;;;;;17.07;2.50;;;5.30;98.20;;;;;;5012048;28;20414;-72
2021/12/08 07:51:34;;;;;;;10.13;2.77;;;5.30;97.80;;;;;;4981645;28;20458;-72
2021/12/08 07:54:02;;;;;;;9.27;3.67;;;5.30;97.70;;;;;;4999533;28;20919;-72
2021/12/08 07:56:28;;;;;;;15.10;3.17;;;5.20;97.80;;;;;;5014182;28;20938;-70
2021/12/08 07:58:59;;;;;;;6.63;2.37;;;5.20;97.80;;;;;;5013743;28;20410;-70
2021/12/08 08:01:31;;;;;;;8.23;3.23;;;5.30;97.80;;;;;;5012489;28;20473;-71
2021/12/08 08:03:58;;;;;;;7.03;3.03;;;5.30;97.80;;;;;;5013541;28;20405;-73
2021/12/08 08:06:29;;;;;;;9.20;2.43;;;5.30;97.60;;;;;;5013049;28;20484;-70
2021/12/08 08:08:55;;;;;;;5.70;2.30;;;5.40;97.40;;;;;;5012982;28;20414;-72
2021/12/08 08:11:26;;;;;;;7.83;1.97;;;5.40;97.30;;;;;;5012762;28;20927;-73
2021/12/08 08:13:53;;;;;;;9.10;3.20;;;5.40;97.10;;;;;;5012716;28;20406;-71
2021/12/08 08:16:23;;;;;;;4.33;1.83;;;5.40;97.00;;;;;;5011165;28;20985;-71
2021/12/08 08:18:57;;;;;;;8.50;2.33;;;5.40;96.90;;;;;;5013273;28;20429;-73
2021/12/08 08:21:29;;;;;;;8.30;2.37;;;5.40;96.80;;;;;;5013436;28;20429;-71
2021/12/08 08:23:57;;;;;;;8.17;2.07;;;5.50;96.50;;;;;;5013044;28;20822;-70
2021/12/08 08:26:23;;;;;;;5.67;2.37;;;5.50;96.40;;;;;;5014962;28;20398;-73
2021/12/08 08:28:52;;;;;;;7.10;2.30;;;5.50;96.40;;;;;;5012874;28;20464;-72
2021/12/08 08:31:29;;;;;;;6.23;2.27;;;5.50;96.40;;;;;;5015181;28;20178;-72
2021/12/08 08:33:55;;;;;;;10.80;2.70;;;5.60;96.30;;;;;;5023131;28;20437;-71
2021/12/08 08:36:25;;;;;;;5.43;2.20;;;5.60;96.00;;;;;;5022372;28;20468;-72
2021/12/08 08:39:18;;;;;;;21.10;2.63;;;5.60;96.00;;;;;;5021992;28;20163;-72
2021/12/08 08:41:51;;;;;;;29.30;12.80;;;5.70;95.80;;;;;;5020586;28;20440;-72
2021/12/08 08:44:21;;;;;;;11.17;3.33;;;5.70;95.70;;;;;;5012894;28;20991;-71
2021/12/08 08:46:48;;;;;;;7.50;2.50;;;5.80;95.70;;;;;;5012231;28;20414;-73
2021/12/08 08:49:22;;;;;;;6.60;3.30;;;5.80;95.50;;;;;;5012587;28;20438;-72
2021/12/08 08:51:51;;;;;;;6.50;2.70;;;5.80;95.10;;;;;;5012084;28;20414;-72
2021/12/08 08:54:21;;;;;;;8.50;3.80;;;5.90;94.90;;;;;;5011301;28;20741;-73
2021/12/08 08:57:04;;;;;;;7.27;2.60;;;5.90;94.50;;;;;;5012760;28;20410;-73
2021/12/08 08:59:34;;;;;;;9.63;2.80;;;6.00;94.30;;;;;;5012628;28;20414;-72
2021/12/08 09:02:04;;;;;;;8.93;4.23;;;6.00;94.10;;;;;;5011816;28;20414;-72
2021/12/08 09:04:32;;;;;;;12.20;3.17;;;6.00;93.80;;;;;;5012647;28;20410;-74
2021/12/08 09:07:03;;;;;;;16.53;4.17;;;6.10;93.70;;;;;;5012121;28;20408;-72
2021/12/08 09:09:33;;;;;;;4.10;2.30;;;6.10;93.90;;;;;;5010812;28;20457;-71
2021/12/08 09:12:14;;;;;;;6.70;2.40;;;6.10;93.70;;;;;;5010682;28;20645;-71
2021/12/08 09:14:52;;;;;;;8.13;2.43;;;6.20;93.80;;;;;;5011777;28;20410;-73
2021/12/08 09:17:26;;;;;;;5.63;2.93;;;6.30;93.90;;;;;;5012006;28;20463;-71
2021/12/08 09:20:10;;;;;;;13.30;2.73;;;6.30;93.60;;;;;;5010537;28;20441;-73
2021/12/08 09:22:41;;;;;;;7.77;3.17;;;6.40;93.40;;;;;;5011681;28;20901;-73
2021/12/08 09:25:15;;;;;;;5.70;3.30;;;6.40;93.10;;;;;;5011675;28;20414;-73
2021/12/08 09:27:46;;;;;;;5.40;2.00;;;6.50;93.10;;;;;;5009993;28;20954;-73
2021/12/08 09:30:33;;;;;;;10.37;3.07;;;6.50;92.80;;;;;;5010562;28;20599;-72
2021/12/08 09:33:17;;;;;;;9.50;4.90;;;6.40;92.80;;;;;;5011044;28;20406;-72
2021/12/08 09:35:51;;;;;;;6.27;2.03;;;6.50;92.90;;;;;;5011981;28;20413;-72
2021/12/08 09:38:28;;;;;;;4.50;2.50;;;6.50;92.60;;;;;;5011802;28;20407;-72
2021/12/08 09:41:03;;;;;;;11.93;3.43;;;6.50;92.80;;;;;;4994143;28;20462;-71
2021/12/08 09:43:33;;;;;;;7.93;2.30;;;6.50;92.60;;;;;;5010900;28;20424;-72
2021/12/08 09:46:13;;;;;;;19.50;3.10;;;6.60;92.70;;;;;;5011713;28;20453;-71
2021/12/08 09:48:41;;;;;;;7.67;3.03;;;6.60;92.60;;;;;;5011773;28;20518;-71
2021/12/08 09:51:08;;;;;;;7.33;2.57;;;6.70;92.70;;;;;;5011392;28;21015;-72
2021/12/08 09:53:34;;;;;;;9.07;3.20;;;6.70;92.30;;;;;;5010147;28;20914;-73
2021/12/08 09:56:00;;;;;;;12.13;2.47;;;6.80;92.30;;;;;;5010930;28;20410;-71
2021/12/08 09:58:26;;;;;;;4.10;1.80;;;6.80;92.10;;;;;;5011139;28;20417;-72
2021/12/08 10:00:55;;;;;;;6.37;3.20;;;6.90;91.90;;;;;;5010602;28;20456;-73
2021/12/08 10:03:22;;;;;;;11.00;2.47;;;6.90;91.50;;;;;;5010770;28;20416;-72
2021/12/08 10:05:48;;;;;;;10.00;2.90;;;6.90;91.30;;;;;;5009687;28;20429;-72
2021/12/08 10:08:13;;;;;;;7.43;1.70;;;6.90;91.30;;;;;;5011319;28;20985;-73
2021/12/08 10:10:41;;;;;;;11.37;2.67;;;6.90;91.40;;;;;;5010624;28;20457;-72
2021/12/08 10:13:08;;;;;;;10.23;2.40;;;6.90;91.00;;;;;;5011061;28;20262;-71
2021/12/08 10:15:34;;;;;;;7.53;2.97;;;6.90;91.10;;;;;;5011714;28;20918;-72
2021/12/08 10:18:01;;;;;;;5.77;2.77;;;6.90;91.20;;;;;;5011903;28;20908;-76
2021/12/08 10:20:30;;;;;;;10.97;2.57;;;6.90;91.00;;;;;;5012356;28;20484;-72
2021/12/08 10:23:20;;;;;;;11.20;2.27;;;6.90;91.10;;;;;;5011302;28;20548;-73
2021/12/08 10:26:01;;;;;;;10.23;4.60;;;7.00;91.00;;;;;;5012331;28;20785;-72
2021/12/08 10:28:33;;;;;;;7.77;2.50;;;7.00;90.90;;;;;;5013107;28;20420;-73
2021/12/08 10:31:07;;;;;;;6.87;2.67;;;7.10;90.80;;;;;;5017389;28;20498;-71
2021/12/08 10:34:09;;;;;;;7.20;3.20;;;7.10;90.50;;;;;;5017077;28;20824;-72
2021/12/08 10:37:01;;;;;;;6.30;2.07;;;7.10;90.40;;;;;;5011122;28;20409;-71
2021/12/08 10:39:35;;;;;;;6.73;2.60;;;7.10;90.50;;;;;;5012614;28;20488;-72
2021/12/08 10:42:22;;;;;;;6.40;2.37;;;7.10;90.50;;;;;;5015095;28;20420;-71
2021/12/08 10:47:36;;;;;;;5.67;2.13;;;7.10;90.50;;;;;;5014218;28;20815;-72
2021/12/08 10:55:54;;;;;;;6.50;2.60;;;7.20;90.30;;;;;;5014249;28;20404;-72
2021/12/08 10:58:25;;;;;;;6.63;2.10;;;7.30;90.00;;;;;;5013268;28;20943;-73
2021/12/08 11:00:54;;;;;;;4.73;1.90;;;7.40;90.20;;;;;;5014497;28;20440;-72
2021/12/08 11:03:20;;;;;;;10.07;2.43;;;7.50;88.70;;;;;;5013908;28;20784;-71
2021/12/08 11:05:46;;;;;;;10.50;2.60;;;7.50;88.30;;;;;;5014531;28;20501;-73
2021/12/08 11:08:19;;;;;;;3.63;2.03;;;7.60;86.80;;;;;;5012679;28;20497;-72
2021/12/08 11:11:20;;;;;;;9.40;2.67;;;7.70;84.30;;;;;;5013920;28;20210;-74
2021/12/08 11:13:57;;;;;;;6.30;3.03;;;7.70;82.10;;;;;;5014765;28;20412;-74
2021/12/08 11:16:29;;;;;;;4.40;1.57;;;7.70;81.70;;;;;;5015417;28;20896;-72
2021/12/08 11:19:05;;;;;;;11.73;2.40;;;7.80;81.10;;;;;;5015464;28;20758;-71
2021/12/08 11:21:37;;;;;;;7.47;3.47;;;7.80;80.40;;;;;;5013104;28;20504;-72
2021/12/08 11:24:14;;;;;;;6.67;2.57;;;7.80;79.20;;;;;;5014585;28;20488;-73
2021/12/08 11:26:46;;;;;;;3.63;1.63;;;7.80;78.90;;;;;;5012935;28;20857;-72
2021/12/08 11:29:16;;;;;;;3.70;1.97;;;7.80;78.10;;;;;;5014397;28;20572;-72
2021/12/08 11:32:00;;;;;;;8.30;2.13;;;7.80;77.00;;;;;;5013989;28;20445;-72
2021/12/08 11:34:29;;;;;;;6.23;2.50;;;7.90;77.40;;;;;;5014182;28;20421;-72
2021/12/08 11:37:07;;;;;;;4.93;2.60;;;7.90;75.70;;;;;;5014127;28;20417;-72
2021/12/08 11:39:37;;;;;;;5.23;1.43;;;8.00;76.70;;;;;;5012833;28;20503;-72
2021/12/08 11:42:21;;;;;;;3.47;1.43;;;8.00;76.10;;;;;;5016199;28;20449;-72
2021/12/08 11:44:50;;;;;;;6.53;2.27;;;8.10;74.90;;;;;;5012299;28;20484;-72
2021/12/08 11:47:21;;;;;;;7.40;2.00;;;8.10;74.10;;;;;;5013793;28;20836;-72
2021/12/08 11:49:51;;;;;;;45.97;19.53;;;8.10;74.40;;;;;;5011811;28;20541;-72
2021/12/08 11:52:21;;;;;;;14.60;4.30;;;8.10;75.00;;;;;;5014117;28;20426;-73
2021/12/08 11:54:54;;;;;;;3.30;1.13;;;8.10;73.20;;;;;;5012141;28;20421;-71
2021/12/08 11:57:21;;;;;;;6.73;2.20;;;8.10;72.60;;;;;;4995727;28;20421;-72
2021/12/08 11:59:50;;;;;;;8.70;1.40;;;8.10;72.20;;;;;;5004303;28;21009;-73
2021/12/08 12:02:19;;;;;;;7.30;2.17;;;8.10;73.20;;;;;;4993227;28;20946;-72
2021/12/08 12:04:45;;;;;;;9.43;5.07;;;8.10;73.70;;;;;;4994260;28;20480;-72
2021/12/08 12:07:13;;;;;;;9.40;3.60;;;8.10;73.80;;;;;;5000366;28;20413;-72
2021/12/08 12:09:40;;;;;;;4.00;1.53;;;8.10;74.20;;;;;;5004627;28;20560;-71
2021/12/08 12:12:06;;;;;;;8.67;2.00;;;8.20;74.10;;;;;;5007080;28;20428;-72
2021/12/08 12:14:32;;;;;;;8.43;1.97;;;8.20;72.70;;;;;;5013849;28;20504;-73
2021/12/08 12:16:58;;;;;;;11.27;2.33;;;8.20;73.20;;;;;;5013330;28;20445;-72
2021/12/08 12:19:27;;;;;;;14.53;2.80;;;8.20;74.50;;;;;;5011903;28;20572;-72
2021/12/08 12:22:02;;;;;;;8.57;1.63;;;8.20;74.30;;;;;;5013080;28;20167;-72
2021/12/08 12:24:47;;;;;;;7.57;1.90;;;8.20;74.10;;;;;;5011533;28;20433;-71
2021/12/08 12:27:41;;;;;;;12.40;2.43;;;8.10;74.60;;;;;;5012211;28;20850;-71
2021/12/08 12:30:32;;;;;;;4.30;1.80;;;8.10;74.70;;;;;;5011026;28;20867;-72
2021/12/08 12:32:58;;;;;;;9.20;1.87;;;8.10;75.00;;;;;;5012223;28;20488;-73
2021/12/08 12:35:25;;;;;;;10.10;2.27;;;8.10;74.90;;;;;;5010762;28;20425;-71
2021/12/08 12:38:11;;;;;;;15.13;2.20;;;8.10;74.30;;;;;;5012818;28;20655;-73
2021/12/08 12:40:48;;;;;;;6.50;1.83;;;8.10;74.60;;;;;;5012391;28;20460;-72
2021/12/08 12:43:29;;;;;;;5.73;2.23;;;8.10;74.30;;;;;;5012287;28;20501;-72
2021/12/08 12:46:15;;;;;;;6.80;1.87;;;8.20;73.00;;;;;;5010687;28;20862;-72
2021/12/08 12:48:42;;;;;;;6.50;1.70;;;8.10;71.80;;;;;;5010758;28;20422;-74
2021/12/08 12:51:10;;;;;;;8.27;2.57;;;8.10;71.70;;;;;;5011510;28;20923;-73
2021/12/08 12:53:41;;;;;;;5.93;1.73;;;8.10;71.50;;;;;;5010681;28;20429;-72
2021/12/08 12:56:09;;;;;;;9.53;1.80;;;8.10;71.90;;;;;;5011745;28;20779;-74
2021/12/08 12:58:44;;;;;;;14.43;6.23;;;8.00;70.80;;;;;;5010790;28;20414;-71
2021/12/08 13:01:13;;;;;;;5.67;2.40;;;8.00;70.80;;;;;;5014989;28;20429;-72
2021/12/08 13:03:46;;;;;;;3.60;2.17;;;8.00;71.40;;;;;;5011462;28;20935;-72
2021/12/08 13:06:33;;;;;;;7.67;2.90;;;8.00;71.70;;;;;;5012133;28;20422;-73
2021/12/08 13:09:00;;;;;;;9.43;2.30;;;8.00;71.40;;;;;;5011720;28;20422;-74
2021/12/08 13:11:58;;;;;;;6.20;2.20;;;7.90;71.50;;;;;;5010213;28;20435;-72
2021/12/08 13:14:26;;;;;;;5.20;1.90;;;7.90;70.80;;;;;;5012388;28;20768;-71
2021/12/08 13:17:20;;;;;;;6.90;2.80;;;7.90;71.30;;;;;;5012017;28;20514;-73
2021/12/08 13:19:58;;;;;;;7.47;2.00;;;7.80;71.60;;;;;;5012623;28;20433;-72
2021/12/08 13:22:52;;;;;;;4.80;2.40;;;7.80;72.30;;;;;;5011656;28;20401;-75
2021/12/08 13:25:43;;;;;;;3.43;1.33;;;7.80;72.20;;;;;;5012343;28;20394;-73
2021/12/08 13:28:25;;;;;;;6.20;2.10;;;7.80;72.40;;;;;;5011613;28;20421;-71
2021/12/08 13:31:13;;;;;;;4.70;2.20;;;7.90;72.70;;;;;;5011698;28;20453;-74
2021/12/08 13:33:44;;;;;;;11.47;2.13;;;7.90;72.60;;;;;;5012636;28;20765;-73
2021/12/08 13:36:19;;;;;;;4.40;1.87;;;8.00;73.30;;;;;;5011611;28;20472;-73
2021/12/08 13:39:04;;;;;;;5.13;1.37;;;8.10;72.50;;;;;;5011856;28;20657;-72
2021/12/08 13:42:03;;;;;;;10.10;1.87;;;8.10;72.50;;;;;;5035724;23;20478;-83
2021/12/08 13:45:59;;;;;;;5.63;1.53;;;8.10;72.00;;;;;;5039362;28;20489;-83
2021/12/08 13:49:10;;;;;;;5.23;1.50;;;8.10;72.40;;;;;;4943886;29;20988;-83
2021/12/08 13:59:56;;;;;;;5.80;2.63;;;7.90;73.00;;;;;;4924455;29;20450;-82
2021/12/08 14:02:26;;;;;;;7.73;1.70;;;7.80;73.40;;;;;;4952152;28;20422;-79
2021/12/08 14:05:06;;;;;;;7.53;1.40;;;7.80;73.50;;;;;;4990902;28;20455;-79
2021/12/08 14:07:33;;;;;;;7.50;1.97;;;7.70;73.00;;;;;;5000022;28;20514;-78
2021/12/08 14:10:05;;;;;;;4.50;1.70;;;7.60;73.20;;;;;;5015091;28;20470;-79
2021/12/08 14:12:51;;;;;;;5.13;1.60;;;7.60;73.70;;;;;;5015897;28;20474;-79
2021/12/08 14:15:21;;;;;;;8.53;2.97;;;7.60;73.90;;;;;;5008479;28;20434;-78
2021/12/08 14:17:49;;;;;;;8.93;1.83;;;7.60;74.10;;;;;;5011834;28;20403;-78